sensor_id;sensor_type;location;lat;lon;timestamp;P1;durP1;ratioP1;P2;durP2;ratioP2
33716;SDS011;20046;50.746;7.072;2023-11-22T00:00:22;17.77;;;10.38;;
33716;SDS011;20046;50.746;7.072;2023-11-22T00:02:48;18.00;;;10.23;;
33716;SDS011;20046;50.746;7.072;2023-11-22T00:05:13;16.73;;;10.60;;
33716;SDS011;20046;50.746;7.072;2023-11-22T00:07:39;21.58;;;11.27;;
33716;SDS011;20046;50.746;7.072;2023-11-22T00:10:05;19.85;;;10.93;;
33716;SDS011;20046;50.746;7.072;2023-11-22T00:12:32;20.48;;;10.98;;
33716;SDS011;20046;50.746;7.072;2023-11-22T00:15:02;18.58;;;11.85;;
33716;SDS011;20046;50.746;7.072;2023-11-22T00:17:30;19.60;;;12.98;;
33716;SDS011;20046;50.746;7.072;2023-11-22T00:19:56;17.98;;;11.73;;
33716;SDS011;20046;50.746;7.072;2023-11-22T00:22:22;20.45;;;11.88;;
33716;SDS011;20046;50.746;7.072;2023-11-22T00:24:48;21.38;;;11.75;;
33716;SDS011;20046;50.746;7.072;2023-11-22T00:27:15;23.00;;;12.48;;
33716;SDS011;20046;50.746;7.072;2023-11-22T00:29:41;19.58;;;12.85;;
33716;SDS011;20046;50.746;7.072;2023-11-22T00:32:06;20.38;;;11.52;;
33716;SDS011;20046;50.746;7.072;2023-11-22T00:34:35;22.30;;;13.30;;
33716;SDS011;20046;50.746;7.072;2023-11-22T00:37:01;16.65;;;11.55;;
33716;SDS011;20046;50.746;7.072;2023-11-22T00:39:27;22.17;;;12.45;;
33716;SDS011;20046;50.746;7.072;2023-11-22T00:41:52;20.50;;;12.38;;
33716;SDS011;20046;50.746;7.072;2023-11-22T00:44:18;19.73;;;12.88;;
33716;SDS011;20046;50.746;7.072;2023-11-22T00:46:43;19.85;;;12.20;;
33716;SDS011;20046;50.746;7.072;2023-11-22T00:49:10;21.33;;;13.18;;
33716;SDS011;20046;50.746;7.072;2023-11-22T00:51:36;24.40;;;12.38;;
33716;SDS011;20046;50.746;7.072;2023-11-22T00:54:01;23.98;;;12.80;;
33716;SDS011;20046;50.746;7.072;2023-11-22T00:56:27;19.55;;;13.25;;
33716;SDS011;20046;50.746;7.072;2023-11-22T00:58:53;21.17;;;13.20;;
33716;SDS011;20046;50.746;7.072;2023-11-22T01:01:20;20.98;;;12.68;;
33716;SDS011;20046;50.746;7.072;2023-11-22T01:03:45;22.17;;;13.23;;
33716;SDS011;20046;50.746;7.072;2023-11-22T01:06:12;22.40;;;12.38;;
33716;SDS011;20046;50.746;7.072;2023-11-22T01:08:37;19.88;;;12.90;;
33716;SDS011;20046;50.746;7.072;2023-11-22T01:11:03;20.08;;;12.90;;
33716;SDS011;20046;50.746;7.072;2023-11-22T01:13:30;23.08;;;13.65;;
33716;SDS011;20046;50.746;7.072;2023-11-22T01:15:57;23.23;;;13.73;;
33716;SDS011;20046;50.746;7.072;2023-11-22T01:18:23;21.38;;;13.95;;
33716;SDS011;20046;50.746;7.072;2023-11-22T01:20:49;18.40;;;12.32;;
33716;SDS011;20046;50.746;7.072;2023-11-22T01:23:14;22.77;;;13.20;;
33716;SDS011;20046;50.746;7.072;2023-11-22T01:25:40;19.95;;;12.50;;
33716;SDS011;20046;50.746;7.072;2023-11-22T01:28:06;26.52;;;13.55;;
33716;SDS011;20046;50.746;7.072;2023-11-22T01:30:36;23.02;;;14.00;;
33716;SDS011;20046;50.746;7.072;2023-11-22T01:33:03;21.48;;;13.73;;
33716;SDS011;20046;50.746;7.072;2023-11-22T01:35:29;23.20;;;13.82;;
33716;SDS011;20046;50.746;7.072;2023-11-22T01:37:55;24.20;;;14.65;;
33716;SDS011;20046;50.746;7.072;2023-11-22T01:40:21;20.50;;;13.95;;
33716;SDS011;20046;50.746;7.072;2023-11-22T01:42:47;20.10;;;13.23;;
33716;SDS011;20046;50.746;7.072;2023-11-22T01:45:13;21.17;;;13.48;;
33716;SDS011;20046;50.746;7.072;2023-11-22T01:47:38;24.02;;;14.40;;
33716;SDS011;20046;50.746;7.072;2023-11-22T01:50:05;27.05;;;14.48;;
33716;SDS011;20046;50.746;7.072;2023-11-22T01:52:33;22.85;;;13.48;;
33716;SDS011;20046;50.746;7.072;2023-11-22T01:54:58;24.25;;;14.23;;
33716;SDS011;20046;50.746;7.072;2023-11-22T01:57:29;20.25;;;14.20;;
33716;SDS011;20046;50.746;7.072;2023-11-22T01:59:56;25.70;;;15.48;;
33716;SDS011;20046;50.746;7.072;2023-11-22T02:02:21;23.77;;;14.25;;
33716;SDS011;20046;50.746;7.072;2023-11-22T02:04:47;21.42;;;14.10;;
33716;SDS011;20046;50.746;7.072;2023-11-22T02:07:12;24.35;;;13.80;;
33716;SDS011;20046;50.746;7.072;2023-11-22T02:09:38;24.90;;;14.80;;
33716;SDS011;20046;50.746;7.072;2023-11-22T02:12:04;21.75;;;13.98;;
33716;SDS011;20046;50.746;7.072;2023-11-22T02:14:30;25.45;;;14.10;;
33716;SDS011;20046;50.746;7.072;2023-11-22T02:16:55;24.60;;;14.88;;
33716;SDS011;20046;50.746;7.072;2023-11-22T02:19:21;24.10;;;15.10;;
33716;SDS011;20046;50.746;7.072;2023-11-22T02:21:46;24.20;;;14.40;;
33716;SDS011;20046;50.746;7.072;2023-11-22T02:24:12;26.25;;;14.52;;
33716;SDS011;20046;50.746;7.072;2023-11-22T02:26:38;25.60;;;15.55;;
33716;SDS011;20046;50.746;7.072;2023-11-22T02:29:08;25.20;;;14.95;;
33716;SDS011;20046;50.746;7.072;2023-11-22T02:31:34;24.77;;;16.30;;
33716;SDS011;20046;50.746;7.072;2023-11-22T02:33:59;22.52;;;14.82;;
33716;SDS011;20046;50.746;7.072;2023-11-22T02:36:25;21.98;;;14.45;;
33716;SDS011;20046;50.746;7.072;2023-11-22T02:38:51;23.73;;;14.93;;
33716;SDS011;20046;50.746;7.072;2023-11-22T02:41:18;24.85;;;16.35;;
33716;SDS011;20046;50.746;7.072;2023-11-22T02:43:43;27.58;;;15.95;;
33716;SDS011;20046;50.746;7.072;2023-11-22T02:46:09;25.10;;;14.60;;
33716;SDS011;20046;50.746;7.072;2023-11-22T02:48:34;22.15;;;14.07;;
33716;SDS011;20046;50.746;7.072;2023-11-22T02:51:01;25.20;;;14.55;;
33716;SDS011;20046;50.746;7.072;2023-11-22T02:53:26;22.75;;;14.98;;
33716;SDS011;20046;50.746;7.072;2023-11-22T02:55:52;27.30;;;15.43;;
33716;SDS011;20046;50.746;7.072;2023-11-22T02:58:20;25.38;;;15.48;;
33716;SDS011;20046;50.746;7.072;2023-11-22T03:00:46;27.00;;;15.77;;
33716;SDS011;20046;50.746;7.072;2023-11-22T03:03:12;24.40;;;15.35;;
33716;SDS011;20046;50.746;7.072;2023-11-22T03:05:38;23.52;;;15.55;;
33716;SDS011;20046;50.746;7.072;2023-11-22T03:08:05;22.48;;;14.35;;
33716;SDS011;20046;50.746;7.072;2023-11-22T03:10:32;23.73;;;15.07;;
33716;SDS011;20046;50.746;7.072;2023-11-22T03:12:58;23.95;;;15.63;;
33716;SDS011;20046;50.746;7.072;2023-11-22T03:15:23;30.33;;;15.18;;
33716;SDS011;20046;50.746;7.072;2023-11-22T03:17:49;26.80;;;16.50;;
33716;SDS011;20046;50.746;7.072;2023-11-22T03:20:15;24.15;;;14.73;;
33716;SDS011;20046;50.746;7.072;2023-11-22T03:22:41;27.00;;;16.13;;
33716;SDS011;20046;50.746;7.072;2023-11-22T03:25:09;28.35;;;15.50;;
33716;SDS011;20046;50.746;7.072;2023-11-22T03:27:35;27.17;;;15.88;;
33716;SDS011;20046;50.746;7.072;2023-11-22T03:30:04;27.30;;;15.93;;
33716;SDS011;20046;50.746;7.072;2023-11-22T03:32:30;27.30;;;16.17;;
33716;SDS011;20046;50.746;7.072;2023-11-22T03:34:56;25.30;;;15.60;;
33716;SDS011;20046;50.746;7.072;2023-11-22T03:37:24;31.80;;;16.55;;
33716;SDS011;20046;50.746;7.072;2023-11-22T03:39:50;26.73;;;16.05;;
33716;SDS011;20046;50.746;7.072;2023-11-22T03:42:16;29.85;;;16.85;;
33716;SDS011;20046;50.746;7.072;2023-11-22T03:44:41;24.35;;;15.20;;
33716;SDS011;20046;50.746;7.072;2023-11-22T03:47:09;26.95;;;17.15;;
33716;SDS011;20046;50.746;7.072;2023-11-22T03:49:36;23.27;;;14.63;;
33716;SDS011;20046;50.746;7.072;2023-11-22T03:52:02;27.48;;;15.75;;
33716;SDS011;20046;50.746;7.072;2023-11-22T03:54:28;28.88;;;15.50;;
33716;SDS011;20046;50.746;7.072;2023-11-22T03:56:53;26.65;;;16.42;;
33716;SDS011;20046;50.746;7.072;2023-11-22T03:59:19;33.03;;;15.82;;
33716;SDS011;20046;50.746;7.072;2023-11-22T04:01:44;26.52;;;16.13;;
33716;SDS011;20046;50.746;7.072;2023-11-22T04:04:10;28.38;;;16.00;;
33716;SDS011;20046;50.746;7.072;2023-11-22T04:06:36;29.33;;;16.05;;
33716;SDS011;20046;50.746;7.072;2023-11-22T04:09:01;27.65;;;16.05;;
33716;SDS011;20046;50.746;7.072;2023-11-22T04:11:27;27.13;;;15.65;;
33716;SDS011;20046;50.746;7.072;2023-11-22T04:13:54;25.50;;;15.90;;
33716;SDS011;20046;50.746;7.072;2023-11-22T04:16:20;27.77;;;16.65;;
33716;SDS011;20046;50.746;7.072;2023-11-22T04:18:46;31.02;;;17.40;;
33716;SDS011;20046;50.746;7.072;2023-11-22T04:21:11;24.95;;;15.38;;
33716;SDS011;20046;50.746;7.072;2023-11-22T04:23:37;28.25;;;14.85;;
33716;SDS011;20046;50.746;7.072;2023-11-22T04:26:03;25.83;;;15.13;;
33716;SDS011;20046;50.746;7.072;2023-11-22T04:28:28;25.20;;;14.13;;
33716;SDS011;20046;50.746;7.072;2023-11-22T04:30:54;24.30;;;13.23;;
33716;SDS011;20046;50.746;7.072;2023-11-22T04:33:21;23.73;;;13.65;;
33716;SDS011;20046;50.746;7.072;2023-11-22T04:35:48;25.30;;;13.25;;
33716;SDS011;20046;50.746;7.072;2023-11-22T04:38:14;23.95;;;12.02;;
33716;SDS011;20046;50.746;7.072;2023-11-22T04:40:39;23.35;;;13.55;;
33716;SDS011;20046;50.746;7.072;2023-11-22T04:43:05;22.52;;;13.10;;
33716;SDS011;20046;50.746;7.072;2023-11-22T04:45:31;23.58;;;13.93;;
33716;SDS011;20046;50.746;7.072;2023-11-22T04:47:57;22.70;;;13.57;;
33716;SDS011;20046;50.746;7.072;2023-11-22T04:50:23;20.80;;;14.18;;
33716;SDS011;20046;50.746;7.072;2023-11-22T04:52:51;24.65;;;12.75;;
33716;SDS011;20046;50.746;7.072;2023-11-22T04:55:17;21.13;;;13.05;;
33716;SDS011;20046;50.746;7.072;2023-11-22T04:57:44;21.20;;;13.35;;
33716;SDS011;20046;50.746;7.072;2023-11-22T05:00:10;22.65;;;13.70;;
33716;SDS011;20046;50.746;7.072;2023-11-22T05:02:37;21.45;;;13.40;;
33716;SDS011;20046;50.746;7.072;2023-11-22T05:05:03;24.00;;;13.48;;
33716;SDS011;20046;50.746;7.072;2023-11-22T05:07:29;25.70;;;14.35;;
33716;SDS011;20046;50.746;7.072;2023-11-22T05:09:54;28.80;;;15.80;;
33716;SDS011;20046;50.746;7.072;2023-11-22T05:12:20;33.33;;;14.90;;
33716;SDS011;20046;50.746;7.072;2023-11-22T05:14:46;25.48;;;14.80;;
33716;SDS011;20046;50.746;7.072;2023-11-22T05:17:11;24.63;;;14.70;;
33716;SDS011;20046;50.746;7.072;2023-11-22T05:19:37;28.02;;;14.20;;
33716;SDS011;20046;50.746;7.072;2023-11-22T05:22:03;26.23;;;14.30;;
33716;SDS011;20046;50.746;7.072;2023-11-22T05:24:29;28.08;;;15.25;;
33716;SDS011;20046;50.746;7.072;2023-11-22T05:26:55;30.08;;;15.98;;
33716;SDS011;20046;50.746;7.072;2023-11-22T05:29:21;30.15;;;15.88;;
33716;SDS011;20046;50.746;7.072;2023-11-22T05:31:46;28.52;;;16.27;;
33716;SDS011;20046;50.746;7.072;2023-11-22T05:34:12;31.55;;;16.48;;
33716;SDS011;20046;50.746;7.072;2023-11-22T05:36:38;28.02;;;17.13;;
33716;SDS011;20046;50.746;7.072;2023-11-22T05:39:03;35.88;;;16.55;;
33716;SDS011;20046;50.746;7.072;2023-11-22T05:41:29;30.85;;;16.83;;
33716;SDS011;20046;50.746;7.072;2023-11-22T05:43:55;29.35;;;16.38;;
33716;SDS011;20046;50.746;7.072;2023-11-22T05:46:22;30.83;;;17.20;;
33716;SDS011;20046;50.746;7.072;2023-11-22T05:48:49;27.58;;;15.68;;
33716;SDS011;20046;50.746;7.072;2023-11-22T05:51:18;27.67;;;15.43;;
33716;SDS011;20046;50.746;7.072;2023-11-22T05:53:44;27.25;;;16.05;;
33716;SDS011;20046;50.746;7.072;2023-11-22T05:56:10;31.52;;;14.30;;
33716;SDS011;20046;50.746;7.072;2023-11-22T05:58:36;27.33;;;14.98;;
33716;SDS011;20046;50.746;7.072;2023-11-22T06:01:03;23.77;;;13.85;;
33716;SDS011;20046;50.746;7.072;2023-11-22T06:03:32;22.25;;;13.10;;
33716;SDS011;20046;50.746;7.072;2023-11-22T06:05:59;21.75;;;12.95;;
33716;SDS011;20046;50.746;7.072;2023-11-22T06:08:24;24.27;;;13.45;;
33716;SDS011;20046;50.746;7.072;2023-11-22T06:10:50;23.35;;;13.50;;
33716;SDS011;20046;50.746;7.072;2023-11-22T06:13:16;22.38;;;13.43;;
33716;SDS011;20046;50.746;7.072;2023-11-22T06:15:42;23.40;;;13.50;;
33716;SDS011;20046;50.746;7.072;2023-11-22T06:18:08;21.08;;;12.40;;
33716;SDS011;20046;50.746;7.072;2023-11-22T06:20:34;21.65;;;12.40;;
33716;SDS011;20046;50.746;7.072;2023-11-22T06:22:59;24.55;;;13.48;;
33716;SDS011;20046;50.746;7.072;2023-11-22T06:25:25;30.17;;;15.27;;
33716;SDS011;20046;50.746;7.072;2023-11-22T06:27:52;26.73;;;12.50;;
33716;SDS011;20046;50.746;7.072;2023-11-22T06:30:17;29.15;;;14.55;;
33716;SDS011;20046;50.746;7.072;2023-11-22T06:32:43;24.48;;;14.00;;
33716;SDS011;20046;50.746;7.072;2023-11-22T06:35:09;24.58;;;14.23;;
33716;SDS011;20046;50.746;7.072;2023-11-22T06:37:39;25.08;;;14.32;;
33716;SDS011;20046;50.746;7.072;2023-11-22T06:40:05;26.50;;;13.77;;
33716;SDS011;20046;50.746;7.072;2023-11-22T06:42:32;28.58;;;15.60;;
33716;SDS011;20046;50.746;7.072;2023-11-22T06:44:58;29.05;;;14.80;;
33716;SDS011;20046;50.746;7.072;2023-11-22T06:47:25;31.27;;;14.55;;
33716;SDS011;20046;50.746;7.072;2023-11-22T06:49:52;35.25;;;16.08;;
33716;SDS011;20046;50.746;7.072;2023-11-22T06:52:18;27.38;;;14.68;;
33716;SDS011;20046;50.746;7.072;2023-11-22T06:54:44;32.13;;;14.25;;
33716;SDS011;20046;50.746;7.072;2023-11-22T06:57:10;31.52;;;15.18;;
33716;SDS011;20046;50.746;7.072;2023-11-22T06:59:35;35.08;;;16.35;;
33716;SDS011;20046;50.746;7.072;2023-11-22T07:02:01;27.92;;;14.75;;
33716;SDS011;20046;50.746;7.072;2023-11-22T07:04:27;37.15;;;17.70;;
33716;SDS011;20046;50.746;7.072;2023-11-22T07:06:52;31.33;;;14.98;;
33716;SDS011;20046;50.746;7.072;2023-11-22T07:09:18;31.88;;;16.20;;
33716;SDS011;20046;50.746;7.072;2023-11-22T07:11:44;30.10;;;15.65;;
33716;SDS011;20046;50.746;7.072;2023-11-22T07:14:10;27.92;;;15.18;;
33716;SDS011;20046;50.746;7.072;2023-11-22T07:16:35;34.35;;;17.27;;
33716;SDS011;20046;50.746;7.072;2023-11-22T07:19:02;31.98;;;15.18;;
33716;SDS011;20046;50.746;7.072;2023-11-22T07:21:31;32.15;;;14.98;;
33716;SDS011;20046;50.746;7.072;2023-11-22T07:23:56;32.08;;;15.90;;
33716;SDS011;20046;50.746;7.072;2023-11-22T07:26:24;30.60;;;15.70;;
33716;SDS011;20046;50.746;7.072;2023-11-22T07:28:51;24.27;;;11.38;;
33716;SDS011;20046;50.746;7.072;2023-11-22T07:31:17;23.55;;;11.88;;
33716;SDS011;20046;50.746;7.072;2023-11-22T07:33:44;20.10;;;10.75;;
33716;SDS011;20046;50.746;7.072;2023-11-22T07:36:10;26.13;;;13.38;;
33716;SDS011;20046;50.746;7.072;2023-11-22T07:38:39;27.67;;;12.43;;
33716;SDS011;20046;50.746;7.072;2023-11-22T07:41:06;22.30;;;12.13;;
33716;SDS011;20046;50.746;7.072;2023-11-22T07:43:32;22.17;;;11.75;;
33716;SDS011;20046;50.746;7.072;2023-11-22T07:45:57;22.05;;;11.32;;
33716;SDS011;20046;50.746;7.072;2023-11-22T07:48:24;21.30;;;11.10;;
33716;SDS011;20046;50.746;7.072;2023-11-22T07:50:50;18.05;;;10.35;;
33716;SDS011;20046;50.746;7.072;2023-11-22T07:53:18;27.30;;;12.05;;
33716;SDS011;20046;50.746;7.072;2023-11-22T07:55:43;29.73;;;12.48;;
33716;SDS011;20046;50.746;7.072;2023-11-22T07:58:09;23.55;;;11.40;;
33716;SDS011;20046;50.746;7.072;2023-11-22T08:00:35;29.15;;;11.75;;
33716;SDS011;20046;50.746;7.072;2023-11-22T08:03:07;28.67;;;12.77;;
33716;SDS011;20046;50.746;7.072;2023-11-22T08:05:32;31.25;;;12.68;;
33716;SDS011;20046;50.746;7.072;2023-11-22T08:08:05;19.35;;;10.88;;
33716;SDS011;20046;50.746;7.072;2023-11-22T08:10:36;24.52;;;10.52;;
33716;SDS011;20046;50.746;7.072;2023-11-22T08:13:02;18.83;;;10.93;;
33716;SDS011;20046;50.746;7.072;2023-11-22T08:15:28;28.20;;;11.07;;
33716;SDS011;20046;50.746;7.072;2023-11-22T08:17:56;22.98;;;10.18;;
33716;SDS011;20046;50.746;7.072;2023-11-22T08:20:22;16.23;;;8.68;;
33716;SDS011;20046;50.746;7.072;2023-11-22T08:22:47;13.02;;;8.55;;
33716;SDS011;20046;50.746;7.072;2023-11-22T08:25:16;16.75;;;9.85;;
33716;SDS011;20046;50.746;7.072;2023-11-22T08:27:42;25.42;;;9.70;;
33716;SDS011;20046;50.746;7.072;2023-11-22T08:30:08;14.88;;;7.03;;
33716;SDS011;20046;50.746;7.072;2023-11-22T08:32:44;15.45;;;6.97;;
33716;SDS011;20046;50.746;7.072;2023-11-22T08:35:16;14.30;;;7.40;;
33716;SDS011;20046;50.746;7.072;2023-11-22T08:37:41;11.63;;;7.55;;
33716;SDS011;20046;50.746;7.072;2023-11-22T08:40:09;13.38;;;7.75;;
33716;SDS011;20046;50.746;7.072;2023-11-22T08:42:39;16.10;;;8.95;;
33716;SDS011;20046;50.746;7.072;2023-11-22T08:45:06;12.07;;;7.13;;
33716;SDS011;20046;50.746;7.072;2023-11-22T08:47:33;10.65;;;6.65;;
33716;SDS011;20046;50.746;7.072;2023-11-22T08:49:59;11.00;;;5.55;;
33716;SDS011;20046;50.746;7.072;2023-11-22T08:52:25;9.50;;;6.32;;
33716;SDS011;20046;50.746;7.072;2023-11-22T08:54:51;11.43;;;6.72;;
33716;SDS011;20046;50.746;7.072;2023-11-22T08:57:17;12.38;;;7.57;;
33716;SDS011;20046;50.746;7.072;2023-11-22T08:59:43;10.10;;;6.25;;
33716;SDS011;20046;50.746;7.072;2023-11-22T09:02:09;8.85;;;5.55;;
33716;SDS011;20046;50.746;7.072;2023-11-22T09:04:37;11.50;;;5.43;;
33716;SDS011;20046;50.746;7.072;2023-11-22T09:07:03;7.85;;;4.93;;
33716;SDS011;20046;50.746;7.072;2023-11-22T09:09:31;9.00;;;4.68;;
33716;SDS011;20046;50.746;7.072;2023-11-22T09:11:57;7.95;;;4.25;;
33716;SDS011;20046;50.746;7.072;2023-11-22T09:14:23;7.32;;;4.22;;
33716;SDS011;20046;50.746;7.072;2023-11-22T09:16:49;5.85;;;4.05;;
33716;SDS011;20046;50.746;7.072;2023-11-22T09:19:22;10.15;;;4.28;;
33716;SDS011;20046;50.746;7.072;2023-11-22T09:21:49;6.18;;;4.05;;
33716;SDS011;20046;50.746;7.072;2023-11-22T09:24:15;7.88;;;4.40;;
33716;SDS011;20046;50.746;7.072;2023-11-22T09:26:41;6.80;;;4.10;;
33716;SDS011;20046;50.746;7.072;2023-11-22T09:29:10;6.20;;;4.00;;
33716;SDS011;20046;50.746;7.072;2023-11-22T09:31:39;5.65;;;3.38;;
33716;SDS011;20046;50.746;7.072;2023-11-22T09:34:07;4.05;;;2.90;;
33716;SDS011;20046;50.746;7.072;2023-11-22T09:36:33;6.97;;;3.47;;
33716;SDS011;20046;50.746;7.072;2023-11-22T09:38:59;6.65;;;3.60;;
33716;SDS011;20046;50.746;7.072;2023-11-22T09:41:25;7.43;;;3.65;;
33716;SDS011;20046;50.746;7.072;2023-11-22T09:43:52;4.85;;;3.55;;
33716;SDS011;20046;50.746;7.072;2023-11-22T09:46:23;5.82;;;3.75;;
33716;SDS011;20046;50.746;7.072;2023-11-22T09:48:50;5.43;;;3.35;;
33716;SDS011;20046;50.746;7.072;2023-11-22T09:53:58;10.60;;;4.30;;
33716;SDS011;20046;50.746;7.072;2023-11-22T09:56:26;6.65;;;3.20;;
33716;SDS011;20046;50.746;7.072;2023-11-22T09:58:53;5.32;;;4.05;;
33716;SDS011;20046;50.746;7.072;2023-11-22T10:01:21;4.85;;;2.75;;
33716;SDS011;20046;50.746;7.072;2023-11-22T10:03:50;6.57;;;3.67;;
33716;SDS011;20046;50.746;7.072;2023-11-22T10:06:16;6.60;;;3.90;;
33716;SDS011;20046;50.746;7.072;2023-11-22T10:08:42;7.85;;;3.90;;
33716;SDS011;20046;50.746;7.072;2023-11-22T10:11:11;6.38;;;3.65;;
33716;SDS011;20046;50.746;7.072;2023-11-22T10:13:48;5.40;;;3.50;;
33716;SDS011;20046;50.746;7.072;2023-11-22T10:16:16;6.57;;;3.30;;
33716;SDS011;20046;50.746;7.072;2023-11-22T10:18:43;4.18;;;3.30;;
33716;SDS011;20046;50.746;7.072;2023-11-22T10:21:27;7.63;;;3.72;;
33716;SDS011;20046;50.746;7.072;2023-11-22T10:23:55;8.98;;;3.42;;
33716;SDS011;20046;50.746;7.072;2023-11-22T10:26:22;6.38;;;4.13;;
33716;SDS011;20046;50.746;7.072;2023-11-22T10:28:52;7.72;;;3.58;;
33716;SDS011;20046;50.746;7.072;2023-11-22T10:31:18;9.38;;;3.70;;
33716;SDS011;20046;50.746;7.072;2023-11-22T10:33:46;4.10;;;3.10;;
33716;SDS011;20046;50.746;7.072;2023-11-22T10:36:13;5.05;;;3.20;;
33716;SDS011;20046;50.746;7.072;2023-11-22T10:38:40;4.28;;;3.28;;
33716;SDS011;20046;50.746;7.072;2023-11-22T10:41:08;3.58;;;2.83;;
33716;SDS011;20046;50.746;7.072;2023-11-22T10:43:35;5.63;;;3.40;;
33716;SDS011;20046;50.746;7.072;2023-11-22T10:46:04;5.07;;;3.15;;
33716;SDS011;20046;50.746;7.072;2023-11-22T10:48:31;8.05;;;3.42;;
33716;SDS011;20046;50.746;7.072;2023-11-22T10:51:01;5.38;;;3.17;;
33716;SDS011;20046;50.746;7.072;2023-11-22T10:53:34;4.75;;;3.30;;
33716;SDS011;20046;50.746;7.072;2023-11-22T10:56:14;5.07;;;3.22;;
33716;SDS011;20046;50.746;7.072;2023-11-22T10:58:45;5.22;;;3.53;;
33716;SDS011;20046;50.746;7.072;2023-11-22T11:01:16;4.72;;;2.95;;
33716;SDS011;20046;50.746;7.072;2023-11-22T11:03:45;5.78;;;3.72;;
33716;SDS011;20046;50.746;7.072;2023-11-22T11:06:19;5.32;;;2.85;;
33716;SDS011;20046;50.746;7.072;2023-11-22T11:08:52;7.55;;;3.15;;
33716;SDS011;20046;50.746;7.072;2023-11-22T11:11:20;8.43;;;3.47;;
33716;SDS011;20046;50.746;7.072;2023-11-22T11:13:46;3.47;;;2.20;;
33716;SDS011;20046;50.746;7.072;2023-11-22T11:16:13;5.68;;;2.92;;
33716;SDS011;20046;50.746;7.072;2023-11-22T11:18:39;6.97;;;2.85;;
33716;SDS011;20046;50.746;7.072;2023-11-22T11:21:08;7.10;;;2.85;;
33716;SDS011;20046;50.746;7.072;2023-11-22T11:23:38;5.83;;;3.13;;
33716;SDS011;20046;50.746;7.072;2023-11-22T11:26:09;4.07;;;2.58;;
33716;SDS011;20046;50.746;7.072;2023-11-22T11:28:44;5.05;;;2.97;;
33716;SDS011;20046;50.746;7.072;2023-11-22T11:31:14;5.93;;;2.80;;
33716;SDS011;20046;50.746;7.072;2023-11-22T11:36:21;5.40;;;2.58;;
33716;SDS011;20046;50.746;7.072;2023-11-22T11:38:50;7.60;;;2.97;;
33716;SDS011;20046;50.746;7.072;2023-11-22T11:41:24;4.70;;;2.55;;
33716;SDS011;20046;50.746;7.072;2023-11-22T11:43:53;5.57;;;3.10;;
33716;SDS011;20046;50.746;7.072;2023-11-22T11:46:20;4.72;;;2.60;;
33716;SDS011;20046;50.746;7.072;2023-11-22T11:48:48;7.32;;;2.88;;
33716;SDS011;20046;50.746;7.072;2023-11-22T11:51:18;8.77;;;3.05;;
33716;SDS011;20046;50.746;7.072;2023-11-22T11:53:45;3.97;;;2.65;;
33716;SDS011;20046;50.746;7.072;2023-11-22T11:56:11;3.38;;;2.40;;
33716;SDS011;20046;50.746;7.072;2023-11-22T11:58:37;3.80;;;2.67;;
33716;SDS011;20046;50.746;7.072;2023-11-22T12:01:06;8.73;;;2.70;;
33716;SDS011;20046;50.746;7.072;2023-11-22T12:03:37;4.70;;;2.40;;
33716;SDS011;20046;50.746;7.072;2023-11-22T12:06:03;3.78;;;2.17;;
33716;SDS011;20046;50.746;7.072;2023-11-22T12:08:30;4.47;;;2.60;;
33716;SDS011;20046;50.746;7.072;2023-11-22T12:11:00;7.93;;;2.72;;
33716;SDS011;20046;50.746;7.072;2023-11-22T12:13:27;3.17;;;2.13;;
33716;SDS011;20046;50.746;7.072;2023-11-22T12:15:53;3.50;;;2.40;;
33716;SDS011;20046;50.746;7.072;2023-11-22T12:18:19;3.45;;;2.40;;
33716;SDS011;20046;50.746;7.072;2023-11-22T12:20:57;6.40;;;3.17;;
33716;SDS011;20046;50.746;7.072;2023-11-22T12:23:24;4.43;;;2.80;;
33716;SDS011;20046;50.746;7.072;2023-11-22T12:25:58;5.93;;;2.45;;
33716;SDS011;20046;50.746;7.072;2023-11-22T12:28:27;4.15;;;2.42;;
33716;SDS011;20046;50.746;7.072;2023-11-22T12:30:54;5.85;;;2.50;;
33716;SDS011;20046;50.746;7.072;2023-11-22T12:33:19;4.00;;;2.58;;
33716;SDS011;20046;50.746;7.072;2023-11-22T12:35:45;2.95;;;2.60;;
33716;SDS011;20046;50.746;7.072;2023-11-22T12:38:11;5.13;;;2.67;;
33716;SDS011;20046;50.746;7.072;2023-11-22T12:40:37;5.82;;;2.80;;
33716;SDS011;20046;50.746;7.072;2023-11-22T12:43:08;6.68;;;3.13;;
33716;SDS011;20046;50.746;7.072;2023-11-22T12:45:34;5.07;;;2.50;;
33716;SDS011;20046;50.746;7.072;2023-11-22T12:48:19;5.07;;;2.90;;
33716;SDS011;20046;50.746;7.072;2023-11-22T12:50:49;4.15;;;2.78;;
33716;SDS011;20046;50.746;7.072;2023-11-22T12:53:15;6.55;;;2.95;;
33716;SDS011;20046;50.746;7.072;2023-11-22T12:55:42;3.42;;;2.58;;
33716;SDS011;20046;50.746;7.072;2023-11-22T12:58:13;7.18;;;3.20;;
33716;SDS011;20046;50.746;7.072;2023-11-22T13:00:39;3.53;;;2.67;;
33716;SDS011;20046;50.746;7.072;2023-11-22T13:03:05;4.55;;;3.50;;
33716;SDS011;20046;50.746;7.072;2023-11-22T13:05:38;6.75;;;3.05;;
33716;SDS011;20046;50.746;7.072;2023-11-22T13:08:08;3.53;;;2.67;;
33716;SDS011;20046;50.746;7.072;2023-11-22T13:10:37;3.08;;;2.65;;
33716;SDS011;20046;50.746;7.072;2023-11-22T13:13:03;5.60;;;2.90;;
33716;SDS011;20046;50.746;7.072;2023-11-22T13:15:30;5.18;;;2.78;;
33716;SDS011;20046;50.746;7.072;2023-11-22T13:17:55;4.03;;;2.63;;
33716;SDS011;20046;50.746;7.072;2023-11-22T13:20:24;4.53;;;2.90;;
33716;SDS011;20046;50.746;7.072;2023-11-22T13:22:51;4.10;;;2.88;;
33716;SDS011;20046;50.746;7.072;2023-11-22T13:25:18;6.70;;;2.95;;
33716;SDS011;20046;50.746;7.072;2023-11-22T13:27:44;4.60;;;2.85;;
33716;SDS011;20046;50.746;7.072;2023-11-22T13:30:12;4.53;;;2.70;;
33716;SDS011;20046;50.746;7.072;2023-11-22T13:32:37;4.38;;;2.50;;
33716;SDS011;20046;50.746;7.072;2023-11-22T13:35:06;6.10;;;3.00;;
33716;SDS011;20046;50.746;7.072;2023-11-22T13:37:39;4.72;;;2.65;;
33716;SDS011;20046;50.746;7.072;2023-11-22T13:40:07;6.88;;;3.65;;
33716;SDS011;20046;50.746;7.072;2023-11-22T13:42:39;5.18;;;3.00;;
33716;SDS011;20046;50.746;7.072;2023-11-22T13:45:09;4.85;;;2.85;;
33716;SDS011;20046;50.746;7.072;2023-11-22T13:47:36;6.10;;;3.10;;
33716;SDS011;20046;50.746;7.072;2023-11-22T13:50:02;5.07;;;2.95;;
33716;SDS011;20046;50.746;7.072;2023-11-22T13:52:28;4.22;;;2.70;;
33716;SDS011;20046;50.746;7.072;2023-11-22T13:54:54;5.70;;;3.30;;
33716;SDS011;20046;50.746;7.072;2023-11-22T13:57:22;6.63;;;2.55;;
33716;SDS011;20046;50.746;7.072;2023-11-22T13:59:48;3.58;;;2.00;;
33716;SDS011;20046;50.746;7.072;2023-11-22T14:02:13;3.97;;;1.98;;
33716;SDS011;20046;50.746;7.072;2023-11-22T14:04:39;3.60;;;2.10;;
33716;SDS011;20046;50.746;7.072;2023-11-22T14:07:05;2.92;;;1.90;;
33716;SDS011;20046;50.746;7.072;2023-11-22T14:09:32;4.72;;;2.13;;
33716;SDS011;20046;50.746;7.072;2023-11-22T14:12:01;2.45;;;1.45;;
33716;SDS011;20046;50.746;7.072;2023-11-22T14:14:27;9.13;;;4.53;;
33716;SDS011;20046;50.746;7.072;2023-11-22T14:16:52;4.80;;;2.38;;
33716;SDS011;20046;50.746;7.072;2023-11-22T14:19:18;4.32;;;2.30;;
33716;SDS011;20046;50.746;7.072;2023-11-22T14:21:44;6.68;;;2.13;;
33716;SDS011;20046;50.746;7.072;2023-11-22T14:24:10;3.25;;;2.08;;
33716;SDS011;20046;50.746;7.072;2023-11-22T14:26:35;6.70;;;1.95;;
33716;SDS011;20046;50.746;7.072;2023-11-22T14:29:02;3.53;;;2.00;;
33716;SDS011;20046;50.746;7.072;2023-11-22T14:31:28;4.47;;;2.00;;
33716;SDS011;20046;50.746;7.072;2023-11-22T14:33:54;3.00;;;2.05;;